createdAt,value
2022-11-23T00:00:47.993Z,2.10
2022-11-23T00:03:16.532Z,1.92
2022-11-23T00:05:45.686Z,1.83
2022-11-23T00:08:13.531Z,2.08
2022-11-23T00:10:41.399Z,1.98
2022-11-23T00:13:09.346Z,2.10
2022-11-23T00:15:37.141Z,1.40
2022-11-23T00:18:05.185Z,1.60
2022-11-23T00:20:32.992Z,1.70
2022-11-23T00:23:02.149Z,2.10
2022-11-23T00:25:29.950Z,1.70
2022-11-23T00:27:57.747Z,1.80
2022-11-23T00:30:25.564Z,1.77
2022-11-23T00:32:53.448Z,1.70
2022-11-23T00:35:21.317Z,2.00
2022-11-23T00:37:49.116Z,1.60
2022-11-23T00:40:18.682Z,2.20
2022-11-23T00:42:46.486Z,2.85
2022-11-23T00:45:14.382Z,2.58
2022-11-23T00:47:42.200Z,3.40
2022-11-23T00:50:10.769Z,3.28
2022-11-23T00:52:38.574Z,2.60
2022-11-23T00:55:07.135Z,3.33
2022-11-23T00:57:36.301Z,3.33
2022-11-23T01:00:05.745Z,2.75
2022-11-23T01:02:35.879Z,2.53
2022-11-23T01:05:03.797Z,2.10
2022-11-23T01:07:31.880Z,2.40
2022-11-23T01:09:59.791Z,2.47
2022-11-23T01:12:29.852Z,2.33
2022-11-23T01:14:58.982Z,2.20
2022-11-23T01:17:26.755Z,2.08
2022-11-23T01:19:54.567Z,2.33
2022-11-23T01:22:22.852Z,1.95
2022-11-23T01:24:51.786Z,2.00
2022-11-23T01:27:19.604Z,2.38
2022-11-23T01:29:47.386Z,2.20
2022-11-23T01:32:16.555Z,2.40
2022-11-23T01:34:44.399Z,2.05
2022-11-23T01:37:12.208Z,2.17
2022-11-23T01:39:40.010Z,2.22
2022-11-23T01:42:08.626Z,2.38
2022-11-23T01:44:38.519Z,2.15
2022-11-23T01:47:08.192Z,2.10
2022-11-23T01:49:41.834Z,2.17
2022-11-23T01:52:13.126Z,2.28
2022-11-23T01:54:45.372Z,2.30
2022-11-23T01:59:45.012Z,2.40
2022-11-23T02:02:14.679Z,1.92
2022-11-23T02:04:46.869Z,2.30
2022-11-23T02:07:17.211Z,2.25
2022-11-23T02:09:45.919Z,2.53
2022-11-23T02:12:14.396Z,2.25
2022-11-23T02:14:42.951Z,2.55
2022-11-23T02:17:10.908Z,2.67
2022-11-23T02:19:49.063Z,2.53
2022-11-23T02:22:23.772Z,3.05
2022-11-23T02:24:55.947Z,2.92
2022-11-23T02:27:26.113Z,2.35
2022-11-23T02:29:55.011Z,2.35
2022-11-23T02:32:25.669Z,2.75
2022-11-23T02:34:53.467Z,2.45
2022-11-23T02:37:21.645Z,2.35
2022-11-23T02:39:52.852Z,2.55
2022-11-23T02:42:20.696Z,2.70
2022-11-23T02:44:57.091Z,2.72
2022-11-23T02:47:24.946Z,2.67
2022-11-23T02:49:52.816Z,3.33
2022-11-23T02:52:20.670Z,3.08
2022-11-23T02:54:48.505Z,2.72
2022-11-23T02:57:16.380Z,2.40
2022-11-23T02:59:44.191Z,2.72
2022-11-23T03:02:13.375Z,2.67
2022-11-23T03:04:41.202Z,2.70
2022-11-23T03:07:09.116Z,2.40
2022-11-23T03:09:36.987Z,2.60
2022-11-23T03:12:05.126Z,3.10
2022-11-23T03:14:32.944Z,2.83
2022-11-23T03:17:00.938Z,3.47
2022-11-23T03:19:30.452Z,3.03
2022-11-23T03:21:58.683Z,3.05
2022-11-23T03:24:26.516Z,2.90
2022-11-23T03:26:54.360Z,2.70
2022-11-23T03:29:26.207Z,2.95
2022-11-23T03:31:54.054Z,3.17
2022-11-23T03:34:21.928Z,2.58
2022-11-23T03:36:51.086Z,2.72
2022-11-23T03:39:18.995Z,2.78
2022-11-23T03:41:47.025Z,2.85
2022-11-23T03:44:14.865Z,3.40
2022-11-23T03:46:42.684Z,3.00
2022-11-23T03:49:10.514Z,3.22
2022-11-23T03:51:38.323Z,3.00
2022-11-23T03:54:07.796Z,3.10
2022-11-23T03:56:35.747Z,3.05
2022-11-23T03:59:03.564Z,2.72
2022-11-23T04:01:31.400Z,3.67
2022-11-23T04:03:59.405Z,2.33
2022-11-23T04:06:27.324Z,3.15
2022-11-23T04:09:00.374Z,2.97
2022-11-23T04:11:31.134Z,2.88
2022-11-23T04:13:58.965Z,3.30
2022-11-23T04:16:26.797Z,2.47
2022-11-23T04:18:54.621Z,2.70
2022-11-23T04:21:22.454Z,2.78
2022-11-23T04:23:50.276Z,2.83
2022-11-23T04:26:18.277Z,2.75
2022-11-23T04:28:47.474Z,3.17
2022-11-23T04:31:15.310Z,2.40
2022-11-23T04:33:43.123Z,2.83
2022-11-23T04:36:11.037Z,2.60
2022-11-23T04:38:38.866Z,3.03
2022-11-23T04:41:06.738Z,3.10
2022-11-23T04:43:34.631Z,3.17
2022-11-23T04:46:03.785Z,3.33
2022-11-23T04:48:31.965Z,3.10
2022-11-23T04:51:00.270Z,2.83
2022-11-23T04:53:28.106Z,3.00
2022-11-23T04:55:55.951Z,2.90
2022-11-23T04:58:23.815Z,2.50
2022-11-23T05:00:51.882Z,2.85
2022-11-23T05:03:21.155Z,2.90
2022-11-23T05:05:48.976Z,2.35
2022-11-23T05:08:16.896Z,3.03
2022-11-23T05:10:45.142Z,3.13
2022-11-23T05:13:12.967Z,2.45
2022-11-23T05:15:40.843Z,2.67
2022-11-23T05:18:10.506Z,3.10
2022-11-23T05:20:40.025Z,2.40
2022-11-23T05:23:08.092Z,3.00
2022-11-23T05:25:35.907Z,3.10
2022-11-23T05:28:23.084Z,2.72
2022-11-23T05:30:51.839Z,3.00
2022-11-23T05:33:19.650Z,2.90
2022-11-23T05:35:48.881Z,3.13
2022-11-23T05:38:16.732Z,2.63
2022-11-23T05:40:46.261Z,2.83
2022-11-23T05:43:14.136Z,2.67
2022-11-23T05:45:41.935Z,2.30
2022-11-23T05:48:10.891Z,2.22
2022-11-23T05:50:39.643Z,2.28
2022-11-23T05:53:10.315Z,2.70
2022-11-23T05:55:38.236Z,2.40
2022-11-23T05:58:06.064Z,2.50
2022-11-23T06:00:34.018Z,2.97
2022-11-23T06:03:02.199Z,2.40
2022-11-23T06:05:30.411Z,1.95
2022-11-23T06:07:58.263Z,2.17
2022-11-23T06:10:27.429Z,2.00
2022-11-23T06:12:55.269Z,2.05
2022-11-23T06:15:23.124Z,2.10
2022-11-23T06:17:50.942Z,1.80
2022-11-23T06:20:18.923Z,2.40
2022-11-23T06:22:52.920Z,1.75
2022-11-23T06:25:21.007Z,1.83
2022-11-23T06:27:55.712Z,1.80
2022-11-23T06:30:23.990Z,1.67
2022-11-23T06:32:52.072Z,1.60
2022-11-23T06:35:20.054Z,1.60
2022-11-23T06:37:49.842Z,1.55
2022-11-23T06:40:18.377Z,1.80
2022-11-23T06:42:46.486Z,1.70
2022-11-23T06:45:16.140Z,2.50
2022-11-23T06:47:44.308Z,2.42
2022-11-23T06:50:12.223Z,2.40
2022-11-23T06:52:40.078Z,2.17
2022-11-23T06:55:08.433Z,2.40
2022-11-23T06:57:36.246Z,2.28
2022-11-23T07:00:05.028Z,1.80
2022-11-23T07:02:34.284Z,2.33
2022-11-23T07:05:02.133Z,2.17
2022-11-23T07:07:30.033Z,2.40
2022-11-23T07:09:58.754Z,2.42
2022-11-23T07:12:28.946Z,2.15
2022-11-23T07:14:56.782Z,2.17
2022-11-23T07:17:24.727Z,2.08
2022-11-23T07:19:53.879Z,2.03
2022-11-23T07:22:21.707Z,2.20
2022-11-23T07:24:49.537Z,2.22
2022-11-23T07:27:18.508Z,2.25
2022-11-23T07:29:46.444Z,2.30
2022-11-23T07:32:15.516Z,1.90
2022-11-23T07:34:43.343Z,2.15
2022-11-23T07:37:12.562Z,1.60
2022-11-23T07:39:56.866Z,2.03
2022-11-23T07:42:36.863Z,2.10
2022-11-23T07:45:10.388Z,1.77
2022-11-23T07:47:38.605Z,1.90
2022-11-23T07:50:07.782Z,1.67
2022-11-23T07:52:37.449Z,1.45
2022-11-23T07:55:06.229Z,1.70
2022-11-23T07:57:34.068Z,1.88
2022-11-23T08:00:01.889Z,1.90
2022-11-23T08:02:29.744Z,2.30
2022-11-23T08:04:57.596Z,2.10
2022-11-23T08:07:25.477Z,1.70
2022-11-23T08:09:54.796Z,1.60
2022-11-23T08:12:22.656Z,1.80
2022-11-23T08:14:50.479Z,1.80
2022-11-23T08:17:18.438Z,1.55
2022-11-23T08:19:46.260Z,1.40
2022-11-23T08:22:15.912Z,1.90
2022-11-23T08:24:43.989Z,2.03
2022-11-23T08:27:13.163Z,2.20
2022-11-23T08:29:41.047Z,2.78
2022-11-23T08:32:08.913Z,1.63
2022-11-23T08:34:36.821Z,1.70
2022-11-23T08:37:04.656Z,1.58
2022-11-23T08:39:32.483Z,1.75
2022-11-23T08:42:00.381Z,1.27
2022-11-23T08:44:30.155Z,1.35
2022-11-23T08:46:58.333Z,1.60
2022-11-23T08:49:26.297Z,1.45
2022-11-23T08:51:54.576Z,1.73
2022-11-23T08:54:24.188Z,1.60
2022-11-23T08:56:52.206Z,1.20
2022-11-23T08:59:20.473Z,1.70
2022-11-23T09:01:49.979Z,1.42
2022-11-23T09:04:20.717Z,1.63
2022-11-23T09:06:49.025Z,1.27
2022-11-23T09:09:16.908Z,2.10
2022-11-23T09:11:44.934Z,2.00
2022-11-23T09:14:12.747Z,2.72
2022-11-23T09:16:40.644Z,1.50
2022-11-23T09:19:14.233Z,1.52
2022-11-23T09:21:42.962Z,1.70
2022-11-23T09:24:11.967Z,1.75
2022-11-23T09:26:40.168Z,1.48
2022-11-23T09:29:08.919Z,1.58
2022-11-23T09:31:37.259Z,1.50
2022-11-23T09:34:05.244Z,1.85
2022-11-23T09:36:34.442Z,1.42
2022-11-23T09:39:02.257Z,1.73
2022-11-23T09:42:23.876Z,1.52
2022-11-23T09:45:06.745Z,2.33
2022-11-23T09:47:51.429Z,2.28
2022-11-23T09:50:25.569Z,2.05
2022-11-23T09:52:55.047Z,1.85
2022-11-23T09:55:33.596Z,1.90
2022-11-23T09:58:04.836Z,1.60
2022-11-23T10:00:38.642Z,1.80
2022-11-23T10:03:06.481Z,1.90
2022-11-23T10:05:39.932Z,1.70
2022-11-23T10:08:19.070Z,1.70
2022-11-23T10:10:54.976Z,1.60
2022-11-23T10:13:35.056Z,1.95
2022-11-23T10:16:20.393Z,1.90
2022-11-23T10:18:56.868Z,1.67
2022-11-23T10:21:30.960Z,1.92
2022-11-23T10:24:12.420Z,1.75
2022-11-23T10:26:43.349Z,1.92
2022-11-23T10:29:16.645Z,2.13
2022-11-23T10:31:53.978Z,1.73
2022-11-23T10:34:37.628Z,1.80
2022-11-23T10:37:11.031Z,1.52
2022-11-23T10:39:40.229Z,1.35
2022-11-23T10:42:19.372Z,1.35
2022-11-23T10:44:49.547Z,1.58
2022-11-23T10:47:36.176Z,1.30
2022-11-23T10:50:04.573Z,1.35
2022-11-23T10:52:33.994Z,1.40
2022-11-23T10:55:06.648Z,1.20
2022-11-23T10:57:36.928Z,1.13
2022-11-23T11:00:16.966Z,1.35
2022-11-23T11:02:46.544Z,1.13
2022-11-23T11:05:46.000Z,1.10
2022-11-23T11:08:15.911Z,1.75
2022-11-23T11:10:49.960Z,1.27
2022-11-23T11:13:29.830Z,1.10
2022-11-23T11:16:00.304Z,1.10
2022-11-23T11:18:30.995Z,1.25
2022-11-23T11:21:01.879Z,1.55
2022-11-23T11:23:31.465Z,1.10
2022-11-23T11:26:21.118Z,1.25
2022-11-23T11:28:51.460Z,1.42
2022-11-23T11:31:55.050Z,1.33
2022-11-23T11:34:26.132Z,3.33
2022-11-23T11:37:03.564Z,2.92
2022-11-23T11:39:36.508Z,2.22
2022-11-23T11:42:08.589Z,1.60
2022-11-23T11:44:39.370Z,1.33
2022-11-23T11:47:18.067Z,1.30
2022-11-23T11:49:49.004Z,1.50
2022-11-23T11:52:22.113Z,1.17
2022-11-23T11:54:55.935Z,1.25
2022-11-23T11:57:28.999Z,1.10
2022-11-23T11:59:58.610Z,1.35
2022-11-23T12:02:28.428Z,1.67
2022-11-23T12:05:06.507Z,1.33
2022-11-23T12:07:37.433Z,1.55
2022-11-23T12:10:19.528Z,1.23
2022-11-23T12:12:49.225Z,0.90
2022-11-23T12:15:47.855Z,1.15
2022-11-23T12:18:25.545Z,1.00
2022-11-23T12:21:01.652Z,1.42
2022-11-23T12:23:45.082Z,1.10
2022-11-23T12:26:25.307Z,1.10
2022-11-23T12:29:26.729Z,1.10
2022-11-23T12:32:04.203Z,1.23
2022-11-23T12:34:50.993Z,1.00
2022-11-23T12:37:40.232Z,1.02
2022-11-23T12:40:29.571Z,0.98
2022-11-23T12:43:02.950Z,1.00
2022-11-23T12:45:46.515Z,0.93
2022-11-23T12:48:34.065Z,0.85
2022-11-23T12:51:13.008Z,1.45
2022-11-23T12:53:51.163Z,1.08
2022-11-23T12:56:30.018Z,0.90
2022-11-23T12:58:59.987Z,0.95
2022-11-23T13:01:32.575Z,1.25
2022-11-23T13:04:35.285Z,0.85
2022-11-23T13:07:46.264Z,1.10
2022-11-23T13:10:38.805Z,1.10
2022-11-23T13:13:31.411Z,1.00
2022-11-23T13:16:34.846Z,0.80
2022-11-23T13:19:30.283Z,1.27
2022-11-23T13:21:59.410Z,0.90
2022-11-23T13:24:28.948Z,1.50
2022-11-23T13:27:31.553Z,1.00
2022-11-23T13:30:01.267Z,1.23
2022-11-23T13:32:47.737Z,1.77
2022-11-23T13:35:49.068Z,1.10
2022-11-23T13:38:25.996Z,1.10
2022-11-23T13:40:54.669Z,0.93
2022-11-23T13:43:25.384Z,0.93
2022-11-23T13:46:28.369Z,0.90
2022-11-23T13:48:59.480Z,1.00
2022-11-23T13:51:29.577Z,0.95
2022-11-23T13:54:02.518Z,1.02
2022-11-23T13:56:35.052Z,1.10
2022-11-23T13:59:29.162Z,0.95
2022-11-23T14:02:16.133Z,1.05
2022-11-23T14:04:47.282Z,1.10
2022-11-23T14:07:19.914Z,1.00
2022-11-23T14:09:52.672Z,0.90
2022-11-23T14:12:29.537Z,1.17
2022-11-23T14:15:04.564Z,1.30
2022-11-23T14:18:18.634Z,1.10
2022-11-23T14:21:11.877Z,0.90
2022-11-23T14:24:27.807Z,1.15
2022-11-23T14:27:31.206Z,0.90
2022-11-23T14:30:32.876Z,1.20
2022-11-23T14:33:12.723Z,1.23
2022-11-23T14:35:47.541Z,1.40
2022-11-23T14:38:51.840Z,1.20
2022-11-23T14:41:22.992Z,1.20
2022-11-23T14:43:51.443Z,1.08
2022-11-23T14:46:20.905Z,1.00
2022-11-23T14:48:49.773Z,1.20
2022-11-23T14:51:19.889Z,1.10
2022-11-23T14:53:51.256Z,1.98
2022-11-23T14:56:28.230Z,2.20
2022-11-23T14:59:00.834Z,1.67
2022-11-23T15:01:29.123Z,1.42
2022-11-23T15:03:58.596Z,1.20
2022-11-23T15:06:31.682Z,2.17
2022-11-23T15:09:09.286Z,2.03
2022-11-23T15:11:38.750Z,1.20
2022-11-23T15:14:19.480Z,1.20
2022-11-23T15:16:47.643Z,0.95
2022-11-23T15:19:20.009Z,0.93
2022-11-23T15:24:24.827Z,1.35
2022-11-23T15:26:53.513Z,1.20
2022-11-23T15:29:35.611Z,1.20
2022-11-23T15:32:34.962Z,1.33
2022-11-23T15:35:07.722Z,1.10
2022-11-23T15:37:41.977Z,1.23
2022-11-23T15:40:15.754Z,1.23
2022-11-23T15:42:44.674Z,1.40
2022-11-23T15:45:35.051Z,1.30
2022-11-23T15:48:04.134Z,1.30
2022-11-23T15:50:34.279Z,1.33
2022-11-23T15:53:03.220Z,1.85
2022-11-23T15:55:32.416Z,1.92
2022-11-23T15:58:03.017Z,2.25
2022-11-23T16:00:31.523Z,2.17
2022-11-23T16:03:34.913Z,3.17
2022-11-23T16:06:20.396Z,1.90
2022-11-23T16:08:48.276Z,2.28
2022-11-23T16:11:30.884Z,1.73
2022-11-23T16:14:13.238Z,1.63
2022-11-23T16:16:45.775Z,1.75
2022-11-23T16:19:24.032Z,2.70
2022-11-23T16:22:00.582Z,2.28
2022-11-23T16:24:32.004Z,1.95
2022-11-23T16:27:02.132Z,2.53
2022-11-23T16:29:35.464Z,2.50
2022-11-23T16:32:06.898Z,2.22
2022-11-23T16:34:35.394Z,3.17
2022-11-23T16:37:04.329Z,3.75
2022-11-23T16:39:32.143Z,3.60
2022-11-23T16:42:01.404Z,3.78
2022-11-23T16:44:31.252Z,3.35
2022-11-23T16:47:24.055Z,2.80
2022-11-23T16:49:52.372Z,2.72
2022-11-23T16:52:20.806Z,3.53
2022-11-23T16:54:48.620Z,4.85
2022-11-23T16:57:27.482Z,4.80
2022-11-23T16:59:55.612Z,5.15
2022-11-23T17:02:24.133Z,5.78
2022-11-23T17:04:52.000Z,3.95
2022-11-23T17:07:20.049Z,3.30
2022-11-23T17:09:47.915Z,3.35
2022-11-23T17:12:17.851Z,2.97
2022-11-23T17:14:49.609Z,2.90
2022-11-23T17:17:22.144Z,3.38
2022-11-23T17:19:51.074Z,3.25
2022-11-23T17:22:19.697Z,3.53
2022-11-23T17:24:48.318Z,2.85
2022-11-23T17:27:18.161Z,3.70
2022-11-23T17:29:47.960Z,3.47
2022-11-23T17:32:15.894Z,3.33
2022-11-23T17:34:43.699Z,3.33
2022-11-23T17:37:17.726Z,3.22
2022-11-23T17:39:45.656Z,3.50
2022-11-23T17:42:13.875Z,3.30
2022-11-23T17:44:41.781Z,3.40
2022-11-23T17:47:22.105Z,3.13
2022-11-23T17:49:49.923Z,3.40
2022-11-23T17:52:17.783Z,2.97
2022-11-23T17:54:45.614Z,3.08
2022-11-23T17:57:15.725Z,3.40
2022-11-23T17:59:43.802Z,3.08
2022-11-23T18:02:13.063Z,3.35
2022-11-23T18:04:40.892Z,3.30
2022-11-23T18:07:11.349Z,3.50
2022-11-23T18:09:39.195Z,3.80
2022-11-23T18:12:07.615Z,4.75
2022-11-23T18:14:35.616Z,3.67
2022-11-23T18:17:03.607Z,3.78
2022-11-23T18:19:33.033Z,3.85
2022-11-23T18:22:01.044Z,3.97
2022-11-23T18:24:28.855Z,3.90
2022-11-23T18:26:57.141Z,4.25
2022-11-23T18:29:24.998Z,3.95
2022-11-23T18:31:52.913Z,4.47
2022-11-23T18:34:20.761Z,4.35
2022-11-23T18:36:49.921Z,3.90
2022-11-23T18:39:17.797Z,3.92
2022-11-23T18:41:45.615Z,4.60
2022-11-23T18:44:13.473Z,4.05
2022-11-23T18:46:41.984Z,4.10
2022-11-23T18:49:09.845Z,4.25
2022-11-23T18:51:37.797Z,4.53
2022-11-23T18:54:07.103Z,4.53
2022-11-23T18:56:34.903Z,4.70
2022-11-23T18:59:02.725Z,5.05
2022-11-23T19:01:30.777Z,4.35
2022-11-23T19:03:58.776Z,4.53
2022-11-23T19:06:26.608Z,4.40
2022-11-23T19:08:57.315Z,4.43
2022-11-23T19:11:28.587Z,5.20
2022-11-23T19:13:58.499Z,5.40
2022-11-23T19:16:28.810Z,5.93
2022-11-23T19:18:58.630Z,5.40
2022-11-23T19:21:27.955Z,5.45
2022-11-23T19:23:57.671Z,5.70
2022-11-23T19:26:27.672Z,5.47
2022-11-23T19:28:57.155Z,5.20
2022-11-23T19:31:26.527Z,5.28
2022-11-23T19:33:57.152Z,4.95
2022-11-23T19:36:26.300Z,5.07
2022-11-23T19:38:56.019Z,5.28
2022-11-23T19:41:29.938Z,5.28
2022-11-23T19:44:00.806Z,4.82
2022-11-23T19:46:29.500Z,5.82
2022-11-23T19:48:58.179Z,5.85
2022-11-23T19:51:27.370Z,5.53
2022-11-23T19:53:57.010Z,5.32
2022-11-23T19:56:27.491Z,5.05
2022-11-23T19:58:57.388Z,4.38
2022-11-23T20:01:28.345Z,6.38
2022-11-23T20:03:57.859Z,6.13
2022-11-23T20:06:28.094Z,4.32
2022-11-23T20:08:56.519Z,3.97
2022-11-23T20:11:24.971Z,2.85
2022-11-23T20:13:52.811Z,3.10
2022-11-23T20:16:21.600Z,2.92
2022-11-23T20:18:56.968Z,2.13
2022-11-23T20:21:25.152Z,2.05
2022-11-23T20:23:59.989Z,1.50
2022-11-23T20:26:32.425Z,1.70
2022-11-23T20:29:00.251Z,1.60
2022-11-23T20:31:29.568Z,1.67
2022-11-23T20:33:59.769Z,2.05
2022-11-23T20:36:29.751Z,2.08
2022-11-23T20:38:58.377Z,1.55
2022-11-23T20:41:27.964Z,1.63
2022-11-23T20:43:57.151Z,1.77
2022-11-23T20:46:53.646Z,1.73
2022-11-23T20:49:15.247Z,1.80
2022-11-23T20:51:43.064Z,1.92
2022-11-23T20:54:11.099Z,2.40
2022-11-23T20:56:39.678Z,1.85
2022-11-23T20:59:07.701Z,2.30
2022-11-23T21:01:35.940Z,2.45
2022-11-23T21:04:03.833Z,1.90
2022-11-23T21:06:38.450Z,1.50
2022-11-23T21:09:07.160Z,1.63
2022-11-23T21:11:52.698Z,2.28
2022-11-23T21:14:23.138Z,2.17
2022-11-23T21:16:55.052Z,1.90
2022-11-23T21:19:24.602Z,1.80
2022-11-23T21:21:54.480Z,1.67
2022-11-23T21:24:22.534Z,1.83
2022-11-23T21:26:50.405Z,2.20
2022-11-23T21:29:18.926Z,2.00
2022-11-23T21:31:48.513Z,2.35
2022-11-23T21:34:19.275Z,3.38
2022-11-23T21:36:47.543Z,2.15
2022-11-23T21:39:17.652Z,2.15
2022-11-23T21:41:46.178Z,1.90
2022-11-23T21:44:14.006Z,1.90
2022-11-23T21:46:42.481Z,1.40
2022-11-23T21:49:11.506Z,1.75
2022-11-23T21:51:42.316Z,1.92
2022-11-23T21:54:13.781Z,1.80
2022-11-23T21:56:43.514Z,1.30
2022-11-23T21:59:11.592Z,2.55
2022-11-23T22:01:40.092Z,2.40
2022-11-23T22:04:10.551Z,2.80
2022-11-23T22:06:39.472Z,2.33
2022-11-23T22:09:09.188Z,2.33
2022-11-23T22:11:39.411Z,2.03
2022-11-23T22:14:11.633Z,2.58
2022-11-23T22:19:11.056Z,1.98
2022-11-23T22:21:39.955Z,1.65
2022-11-23T22:24:11.595Z,1.63
2022-11-23T22:26:39.523Z,1.00
2022-11-23T22:29:09.193Z,1.52
2022-11-23T22:31:37.804Z,1.95
2022-11-23T22:34:08.548Z,1.50
2022-11-23T22:36:36.381Z,1.70
2022-11-23T22:39:06.422Z,2.15
2022-11-23T22:41:36.648Z,2.17
2022-11-23T22:44:06.251Z,2.00
2022-11-23T22:46:35.949Z,2.20
2022-11-23T22:49:03.869Z,2.20
2022-11-23T22:51:31.714Z,2.33
2022-11-23T22:54:00.690Z,2.03
2022-11-23T22:56:29.734Z,2.00
2022-11-23T22:58:57.566Z,2.30
2022-11-23T23:01:27.616Z,2.13
2022-11-23T23:03:59.670Z,2.58
2022-11-23T23:06:29.381Z,2.17
2022-11-23T23:08:58.696Z,2.05
2022-11-23T23:11:27.764Z,2.65
2022-11-23T23:13:55.596Z,2.60
2022-11-23T23:16:23.532Z,2.08
2022-11-23T23:18:51.636Z,2.30
2022-11-23T23:21:22.641Z,2.25
2022-11-23T23:23:52.365Z,2.60
2022-11-23T23:26:23.153Z,2.20
2022-11-23T23:28:54.907Z,2.45
2022-11-23T23:31:23.029Z,2.35
2022-11-23T23:33:51.032Z,2.08
2022-11-23T23:36:21.976Z,1.92
2022-11-23T23:38:50.788Z,2.17
2022-11-23T23:41:18.827Z,1.90
2022-11-23T23:43:48.000Z,3.08
2022-11-23T23:46:16.165Z,1.90
2022-11-23T23:48:44.084Z,1.95
2022-11-23T23:51:16.694Z,2.10
2022-11-23T23:53:46.662Z,1.92
2022-11-23T23:56:16.395Z,2.00
2022-11-23T23:58:45.034Z,2.00
